Time;durP1;ratioP1;P1;durP2;ratioP2;P2;SDS_P1;SDS_P2;PMS_P1;PMS_P2;Temp;Humidity;BMP_temperature;BMP_pressure;BME280_temperature;BME280_humidity;BME280_pressure;Samples;Min_cycle;Max_cycle;Signal;HPM_P1;HPM_P2
2023/03/15 00:01:25;;;;;;;;;4.67;4.67;;;;;27.23;29.48;101350.91;5029440;27;45493;-78
2023/03/15 00:03:53;;;;;;;;;4.00;4.00;;;;;27.23;29.04;101354.44;5030560;27;45356;-78
2023/03/15 00:06:20;;;;;;;;;8.00;7.00;;;;;27.23;29.03;101354.44;5030250;27;45422;-78
2023/03/15 00:08:46;;;;;;;;;7.33;7.33;;;;;27.25;29.17;101356.19;5011292;27;47425;-78
2023/03/15 00:11:11;;;;;;;;;6.67;6.67;;;;;27.23;29.40;101350.91;5028880;27;45497;-78
2023/03/15 00:13:36;;;;;;;;;6.33;6.33;;;;;27.23;29.14;101356.34;5030217;27;46012;-78
2023/03/15 00:16:02;;;;;;;;;6.00;6.00;;;;;27.25;28.96;101356.19;5029634;27;47711;-78
2023/03/15 00:18:27;;;;;;;;;6.00;6.00;;;;;27.22;29.39;101357.38;5029318;27;46621;-78
2023/03/15 00:20:53;;;;;;;;;6.67;6.00;;;;;27.21;29.42;101364.69;5029381;27;45505;-78
2023/03/15 00:23:19;;;;;;;;;5.00;5.00;;;;;27.20;29.66;101363.00;5018071;27;45484;-78
2023/03/15 00:25:46;;;;;;;;;8.67;5.67;;;;;27.20;28.99;101363.00;5014622;27;45832;-78
2023/03/15 00:28:12;;;;;;;;;7.67;7.67;;;;;27.18;28.76;101359.59;5031560;27;45818;-78
2023/03/15 00:30:38;;;;;;;;;8.00;8.00;;;;;27.15;29.43;101351.78;5032609;27;45338;-78
2023/03/15 00:33:04;;;;;;;;;7.00;5.33;;;;;27.18;28.93;101366.94;5032366;27;45408;-77
2023/03/15 00:35:31;;;;;;;;;7.00;7.00;;;;;27.10;29.11;101351.47;5032066;27;45477;-78
2023/03/15 00:37:56;;;;;;;;;7.67;7.00;;;;;27.15;29.07;101370.88;5031917;27;46088;-78
2023/03/15 00:40:23;;;;;;;;;9.00;8.00;;;;;27.14;29.31;101363.69;5032906;27;45355;-76
2023/03/15 00:42:49;;;;;;;;;8.00;8.00;;;;;27.15;29.23;101359.97;5029584;27;45580;-78
2023/03/15 00:45:17;;;;;;;;;7.00;7.00;;;;;27.15;29.34;101365.41;5031957;27;45580;-78
2023/03/15 00:47:42;;;;;;;;;5.67;5.67;;;;;27.15;29.38;101373.59;5014349;27;47297;-77
2023/03/15 00:50:08;;;;;;;;;10.00;8.00;;;;;27.09;29.00;101366.97;5027224;27;45333;-78
2023/03/15 00:52:35;;;;;;;;;8.00;8.00;;;;;27.09;29.34;101374.28;5023517;27;45284;-78
2023/03/15 00:55:01;;;;;;;;;5.00;5.00;;;;;27.04;28.90;101371.25;5036977;27;45700;-77
2023/03/15 00:57:26;;;;;;;;;8.00;8.00;;;;;26.91;29.19;101361.75;5072882;27;46531;-78
2023/03/15 00:59:53;;;;;;;;;9.33;7.00;;;;;26.87;29.34;101357.69;5037355;27;45759;-78
2023/03/15 01:02:21;;;;;;;;;8.00;7.67;;;;;26.82;29.60;101352.75;5031448;27;45380;-78
2023/03/15 01:04:47;;;;;;;;;8.67;7.00;;;;;27.04;29.29;101382.13;5031758;27;45472;-78
2023/03/15 01:07:13;;;;;;;;;9.67;8.67;;;;;26.83;29.57;101353.59;5031403;27;46357;-78
2023/03/15 01:09:38;;;;;;;;;7.33;7.33;;;;;26.86;29.52;101364.16;5032437;27;45431;-78
2023/03/15 01:12:04;;;;;;;;;8.00;8.00;;;;;26.89;28.89;101366.50;5031543;27;45649;-78
2023/03/15 01:14:29;;;;;;;;;9.00;8.33;;;;;27.06;28.81;101396.44;5032439;27;45430;-78
2023/03/15 01:16:55;;;;;;;;;5.67;5.67;;;;;27.03;28.98;101385.91;5031500;27;45776;-78
2023/03/15 01:19:20;;;;;;;;;9.00;9.00;;;;;26.99;29.59;101388.13;5031760;27;45559;-78
2023/03/15 01:21:46;;;;;;;;;7.67;7.67;;;;;26.91;28.88;101377.22;5031645;27;45513;-78
2023/03/15 01:24:13;;;;;;;;;8.33;8.33;;;;;26.84;29.49;101364.31;5014259;27;45419;-78
2023/03/15 01:26:39;;;;;;;;;7.67;7.33;;;;;27.00;28.79;101388.97;5031928;27;46575;-78
2023/03/15 01:29:04;;;;;;;;;7.00;7.00;;;;;26.92;29.14;101378.91;5031911;27;45731;-79
2023/03/15 01:31:30;;;;;;;;;8.67;8.67;;;;;26.82;28.98;101377.25;5013427;27;45427;-79
2023/03/15 01:33:57;;;;;;;;;6.33;6.33;;;;;26.95;28.77;101401.25;5032123;27;45530;-79
2023/03/15 01:36:23;;;;;;;;;9.33;7.67;;;;;26.87;28.79;101384.03;5031782;27;46536;-79
2023/03/15 01:38:48;;;;;;;;;7.33;7.33;;;;;26.94;29.38;101393.25;5031159;27;45365;-79
2023/03/15 01:41:15;;;;;;;;;8.33;8.33;;;;;27.00;28.91;101392.53;5031622;27;45383;-80
2023/03/15 01:43:47;;;;;;;;;7.33;7.33;;;;;26.98;29.02;101401.94;5031738;27;45521;-79
2023/03/15 01:46:18;;;;;;;;;9.00;9.00;;;;;26.99;28.95;101404.47;5031506;27;46339;-80
2023/03/15 01:49:21;;;;;;;;;7.00;7.00;;;;;26.97;29.37;101409.22;5019015;27;45383;-79
2023/03/15 01:52:11;;;;;;;;;5.00;5.00;;;;;26.95;28.70;101405.84;5031926;27;45558;-78
2023/03/15 01:55:18;;;;;;;;;6.00;5.33;;;;;26.91;29.13;101404.47;5013761;27;45489;-78
2023/03/15 01:57:45;;;;;;;;;6.00;6.00;;;;;26.91;29.06;101405.31;5051989;28;45460;-78
2023/03/15 02:00:17;;;;;;;;;7.00;7.00;;;;;26.76;29.12;101377.97;5052022;28;45503;-78
2023/03/15 02:02:50;;;;;;;;;6.00;6.00;;;;;26.82;29.15;101396.31;5051697;28;45867;-78
2023/03/15 02:05:31;;;;;;;;;7.00;7.00;;;;;26.71;29.09;101372.19;5051732;28;45651;-78
2023/03/15 02:07:57;;;;;;;;;7.00;7.00;;;;;26.75;29.20;101379.00;5051342;28;46587;-78
2023/03/15 02:10:29;;;;;;;;;6.33;6.33;;;;;26.86;28.89;101399.56;5042230;28;45429;-79
2023/03/15 02:12:57;;;;;;;;;8.00;6.33;;;;;26.83;28.94;101392.59;5051407;28;45634;-79
2023/03/15 02:15:22;;;;;;;;;7.00;7.00;;;;;26.72;29.13;101373.88;5052040;28;45467;-78
2023/03/15 02:17:48;;;;;;;;;6.67;5.67;;;;;26.79;29.16;101385.78;5051343;28;45711;-78
2023/03/15 02:20:36;;;;;;;;;6.00;6.00;;;;;26.89;29.40;101398.34;5052058;28;45559;-78
2023/03/15 02:23:11;;;;;;;;;6.33;5.67;;;;;26.85;29.01;101389.66;5041189;28;45393;-79
2023/03/15 02:25:49;;;;;;;;;6.00;6.00;;;;;26.76;29.22;101377.97;5052250;28;45503;-79
2023/03/15 02:28:17;;;;;;;;;9.00;7.00;;;;;26.81;28.90;101385.63;5035380;28;46651;-79
2023/03/15 02:30:44;;;;;;;;;7.33;5.00;;;;;26.83;28.81;101389.88;5095273;27;45605;-79
2023/03/15 02:33:35;;;;;;;;;6.00;6.00;;;;;26.69;29.30;101366.09;5029230;27;45768;-78
2023/03/15 02:36:21;;;;;;;;;7.00;7.00;;;;;26.84;29.36;101401.59;5035698;27;45741;-78
2023/03/15 02:38:48;;;;;;;;;6.00;5.67;;;;;26.68;29.38;101377.97;5027030;27;46653;-79
2023/03/15 02:41:20;;;;;;;;;6.00;5.33;;;;;26.82;29.09;101401.75;5030500;27;45496;-79
2023/03/15 02:43:48;;;;;;;;;6.67;6.67;;;;;26.77;29.03;101382.38;5031197;27;45493;-80
2023/03/15 02:46:16;;;;;;;;;5.00;5.00;;;;;26.73;29.15;101374.75;5030744;27;45541;-79
2023/03/15 02:48:42;;;;;;;;;7.00;7.00;;;;;26.83;29.26;101386.28;5030332;27;46494;-79
2023/03/15 02:51:16;;;;;;;;;6.67;6.00;;;;;26.82;29.35;101385.41;5029848;27;45573;-80
2023/03/15 02:53:41;;;;;;;;;4.67;4.67;;;;;26.64;29.17;101358.44;5031541;27;45405;-79
2023/03/15 02:56:06;;;;;;;;;7.00;5.33;;;;;26.77;28.90;101381.53;5030019;27;45548;-79
2023/03/15 02:58:32;;;;;;;;;7.00;7.00;;;;;26.77;29.13;101384.28;5030521;27;48223;-79
2023/03/15 03:00:57;;;;;;;;;2.67;2.67;;;;;26.73;29.14;101380.19;5032004;27;45334;-80
2023/03/15 03:03:22;;;;;;;;;7.00;5.00;;;;;26.79;28.72;101387.66;5054606;27;45347;-79
2023/03/15 03:05:48;;;;;;;;;6.33;5.00;;;;;26.77;29.06;101389.72;5031015;27;45370;-79
2023/03/15 03:08:15;;;;;;;;;7.67;5.67;;;;;26.76;28.85;101390.75;5030680;27;45561;-79
2023/03/15 03:10:40;;;;;;;;;5.67;5.00;;;;;26.74;28.79;101392.78;5024149;27;45433;-79
2023/03/15 03:13:06;;;;;;;;;5.00;5.00;;;;;26.69;29.07;101402.31;5030492;27;45403;-79
2023/03/15 03:15:31;;;;;;;;;5.00;4.00;;;;;26.70;28.73;101414.91;5029709;27;45579;-79
2023/03/15 03:17:56;;;;;;;;;5.33;5.33;;;;;26.63;28.77;101396.72;5053092;27;46333;-78
2023/03/15 03:20:22;;;;;;;;;7.00;5.33;;;;;26.66;28.64;101407.25;5030031;27;45545;-78
2023/03/15 03:22:47;;;;;;;;;7.33;6.00;;;;;26.62;28.76;101404.03;5023679;27;45612;-79
2023/03/15 03:25:13;;;;;;;;;4.00;4.00;;;;;26.57;28.81;101388.22;5026143;27;45452;-78
2023/03/15 03:27:39;;;;;;;;;4.00;4.00;;;;;26.66;28.77;101404.53;5098434;27;46005;-78
2023/03/15 03:30:07;;;;;;;;;4.00;3.67;;;;;26.69;29.03;101413.19;5012631;27;45466;-77
2023/03/15 03:32:33;;;;;;;;;6.00;4.33;;;;;26.66;28.61;101412.72;5029720;27;45434;-78
2023/03/15 03:34:58;;;;;;;;;5.00;4.00;;;;;26.66;29.12;101415.44;5030793;27;45515;-79
2023/03/15 03:37:24;;;;;;;;;4.67;3.00;;;;;26.58;29.27;101400.81;5029871;27;46408;-79
2023/03/15 03:39:49;;;;;;;;;4.67;3.67;;;;;26.65;29.33;101411.03;5030036;27;45372;-79
2023/03/15 03:42:15;;;;;;;;;7.00;5.33;;;;;26.65;28.99;101414.56;5030447;27;45411;-79
2023/03/15 03:44:40;;;;;;;;;6.00;6.00;;;;;26.64;28.62;101418.31;5029145;27;45826;-79
2023/03/15 03:47:06;;;;;;;;;5.00;4.33;;;;;26.57;29.08;101412.72;5029009;27;45482;-78
2023/03/15 03:49:31;;;;;;;;;4.67;4.00;;;;;26.47;29.23;101389.44;5029507;27;45526;-78
2023/03/15 03:51:59;;;;;;;;;4.00;4.00;;;;;26.44;29.05;101396.06;5029580;27;45406;-78
2023/03/15 03:54:24;;;;;;;;;5.33;5.33;;;;;26.56;28.88;101416.47;5030407;27;45567;-78
2023/03/15 03:56:49;;;;;;;;;6.33;4.67;;;;;26.49;28.62;101412.75;5030154;27;45973;-78
2023/03/15 03:59:15;;;;;;;;;5.67;5.00;;;;;26.45;28.56;101408.69;5030049;27;45389;-78
2023/03/15 04:01:41;;;;;;;;;4.00;2.67;;;;;26.60;29.24;101427.84;5030389;27;45395;-78
2023/03/15 04:04:06;;;;;;;;;6.67;4.33;;;;;26.52;28.59;101417.84;5032884;27;45473;-78
2023/03/15 04:06:32;;;;;;;;;5.00;5.00;;;;;26.37;28.73;101403.22;5051168;27;46275;-78
2023/03/15 04:08:57;;;;;;;;;3.33;3.33;;;;;26.49;28.63;101431.81;5020942;27;45426;-78
2023/03/15 04:11:25;;;;;;;;;5.33;5.33;;;;;26.45;29.27;101427.72;5032346;27;45391;-78
2023/03/15 04:13:52;;;;;;;;;3.00;3.00;;;;;26.32;28.68;101406.44;5032038;27;45537;-78
2023/03/15 04:16:18;;;;;;;;;3.67;3.67;;;;;26.52;28.66;101446.94;5032388;27;46172;-78
2023/03/15 04:18:43;;;;;;;;;5.33;4.33;;;;;26.35;29.13;101425.16;5032496;27;45532;-78
2023/03/15 04:21:09;;;;;;;;;4.00;4.00;;;;;26.48;28.95;101440.97;5032586;27;45390;-78
2023/03/15 04:23:36;;;;;;;;;4.00;4.00;;;;;26.58;29.07;101457.13;5018871;27;46427;-78
2023/03/15 04:26:04;;;;;;;;;5.00;4.00;;;;;26.40;28.72;101419.22;5032600;27;45584;-78
2023/03/15 04:28:30;;;;;;;;;11.67;4.33;;;;;26.47;28.68;101417.50;5031876;27;45401;-78
2023/03/15 04:30:57;;;;;;;;;3.33;3.33;;;;;26.44;28.45;101415.13;5081786;27;45910;-78
2023/03/15 04:33:27;;;;;;;;;3.33;3.33;;;;;26.46;28.70;101414.94;5032417;27;45552;-78
2023/03/15 04:35:53;;;;;;;;;5.00;3.00;;;;;26.46;28.94;101417.66;5032575;27;46452;-78
2023/03/15 04:38:25;;;;;;;;;4.33;4.00;;;;;26.42;29.14;101407.16;5032546;27;45414;-78
2023/03/15 04:40:51;;;;;;;;;4.67;4.67;;;;;26.56;28.63;101434.66;5033234;27;45315;-78
2023/03/15 04:43:16;;;;;;;;;4.00;4.00;;;;;26.51;28.69;101432.47;5032191;27;45292;-78
2023/03/15 04:45:42;;;;;;;;;5.00;3.33;;;;;26.50;29.02;101419.88;5031878;27;46009;-77
2023/03/15 04:48:09;;;;;;;;;5.67;5.67;;;;;26.47;28.79;101411.19;5031680;27;45502;-78
2023/03/15 04:50:35;;;;;;;;;4.67;4.67;;;;;26.42;28.50;101425.34;5032244;27;45711;-78
2023/03/15 04:53:00;;;;;;;;;2.67;2.67;;;;;26.38;28.53;101424.84;5032163;27;45669;-77
2023/03/15 04:55:25;;;;;;;;;3.00;3.00;;;;;26.35;28.88;101425.16;5031320;27;46275;-78
2023/03/15 04:57:51;;;;;;;;;4.00;4.00;;;;;26.41;28.90;101435.34;5031295;27;45623;-77
2023/03/15 05:00:17;;;;;;;;;3.00;2.00;;;;;26.49;29.09;101461.75;5032830;27;45375;-78
2023/03/15 05:02:42;;;;;;;;;3.00;3.00;;;;;26.49;28.59;101455.44;5048057;27;45411;-78
2023/03/15 05:05:09;;;;;;;;;4.00;4.00;;;;;26.42;28.46;101439.81;5032377;27;45930;-78
2023/03/15 05:07:36;;;;;;;;;4.33;4.33;;;;;26.44;28.63;101440.47;5029737;27;45519;-78
2023/03/15 05:10:02;;;;;;;;;3.00;3.00;;;;;26.37;28.59;101428.59;5084431;27;45652;-78
2023/03/15 05:12:27;;;;;;;;;8.00;5.33;;;;;26.53;28.42;101462.25;5029358;27;45397;-78
2023/03/15 05:14:53;;;;;;;;;4.00;4.00;;;;;26.28;28.60;101419.56;5021207;27;45696;-78
2023/03/15 05:17:19;;;;;;;;;4.00;4.00;;;;;26.38;28.99;101443.88;5031350;27;45576;-78
2023/03/15 05:19:45;;;;;;;;;4.67;4.67;;;;;26.50;28.66;101459.84;5032206;27;45593;-78
2023/03/15 05:22:10;;;;;;;;;4.00;4.00;;;;;26.53;28.93;101476.69;5029503;27;46930;-78
2023/03/15 05:24:36;;;;;;;;;2.67;2.67;;;;;26.42;28.65;101450.69;5020481;27;45459;-78
2023/03/15 05:27:03;;;;;;;;;2.00;2.00;;;;;26.48;28.66;101462.75;5031050;27;45723;-77
2023/03/15 05:29:28;;;;;;;;;3.67;3.67;;;;;26.57;29.19;101460.88;5031408;27;45505;-78
2023/03/15 05:31:54;;;;;;;;;3.00;3.00;;;;;26.56;28.61;101465.47;5031379;27;45419;-78
2023/03/15 05:34:22;;;;;;;;;3.67;2.00;;;;;26.62;28.57;101458.50;5032276;27;46107;-78
2023/03/15 05:36:50;;;;;;;;;5.67;4.67;;;;;26.69;29.07;101464.94;5030335;27;45497;-76
2023/03/15 05:39:16;;;;;;;;;3.00;3.00;;;;;26.70;29.15;101455.75;5031442;27;45601;-77
2023/03/15 05:41:42;;;;;;;;;3.67;2.67;;;;;26.76;28.66;101465.09;5029976;27;45574;-75
2023/03/15 05:44:07;;;;;;;;;4.00;4.00;;;;;26.80;29.13;101477.34;5031452;27;45563;-75
2023/03/15 05:46:32;;;;;;;;;3.67;3.00;;;;;26.83;28.68;101471.56;5032645;27;51879;-77
2023/03/15 05:48:58;;;;;;;;;3.67;3.67;;;;;26.88;28.32;101473.75;5024218;27;45510;-76
2023/03/15 05:51:23;;;;;;;;;3.00;3.00;;;;;26.88;28.92;101471.03;5054681;27;45462;-76
2023/03/15 05:53:48;;;;;;;;;3.67;3.67;;;;;26.89;28.46;101470.00;5034639;27;45871;-76
2023/03/15 05:56:14;;;;;;;;;3.00;3.00;;;;;26.90;28.57;101477.16;5025567;27;45449;-76
2023/03/15 05:58:39;;;;;;;;;3.00;3.00;;;;;26.92;28.98;101476.97;5028806;27;45567;-75
2023/03/15 06:01:04;;;;;;;;;3.33;3.33;;;;;26.86;28.54;101470.38;5030977;27;45623;-76
2023/03/15 06:03:30;;;;;;;;;2.33;2.33;;;;;26.90;28.31;101477.16;5030073;27;46398;-75
2023/03/15 06:05:59;;;;;;;;;3.00;3.00;;;;;26.88;28.97;101478.34;5082887;27;45441;-75
2023/03/15 06:08:24;;;;;;;;;2.67;2.67;;;;;26.89;29.01;101486.34;5036437;27;45386;-75
2023/03/15 06:10:50;;;;;;;;;3.33;3.33;;;;;26.88;29.06;101487.38;5033726;27;45755;-75
2023/03/15 06:13:15;;;;;;;;;3.00;2.00;;;;;26.91;29.02;101486.19;5038864;27;45384;-76
2023/03/15 06:15:41;;;;;;;;;2.00;2.00;;;;;26.89;28.86;101486.34;5030154;27;45716;-76
2023/03/15 06:18:07;;;;;;;;;4.00;4.00;;;;;26.89;29.00;101486.34;5021361;27;46652;-75
2023/03/15 06:20:33;;;;;;;;;2.33;2.33;;;;;26.90;28.83;101493.50;5020765;27;45542;-76
2023/03/15 06:22:59;;;;;;;;;4.00;4.00;;;;;26.89;29.22;101486.34;5023321;27;45986;-76
2023/03/15 06:25:25;;;;;;;;;3.00;3.00;;;;;26.91;29.06;101489.75;5010932;27;46199;-75
2023/03/15 06:27:50;;;;;;;;;3.00;3.00;;;;;26.91;29.28;101486.19;5024619;27;45432;-75
2023/03/15 06:30:16;;;;;;;;;6.00;3.33;;;;;26.92;29.33;101488.72;5029066;27;45546;-75
2023/03/15 06:32:41;;;;;;;;;5.00;5.00;;;;;26.96;28.93;101494.69;5003052;27;47544;-75
2023/03/15 06:35:07;;;;;;;;;4.00;2.00;;;;;26.96;29.26;101498.28;5031413;27;45454;-76
2023/03/15 06:37:34;;;;;;;;;4.67;4.67;;;;;27.01;28.96;101508.66;5021279;27;45271;-78
2023/03/15 06:40:01;;;;;;;;;7.00;5.67;;;;;27.01;28.68;101505.94;5041134;27;45459;-75
2023/03/15 06:42:26;;;;;;;;;4.00;4.00;;;;;27.03;28.66;101503.91;5012599;27;47037;-75
2023/03/15 06:44:51;;;;;;;;;4.00;4.00;;;;;27.02;28.69;101499.44;5043766;27;45669;-75
2023/03/15 06:47:17;;;;;;;;;5.00;5.00;;;;;26.99;29.10;101496.22;5031187;27;45533;-76
2023/03/15 06:49:42;;;;;;;;;4.00;4.00;;;;;27.04;28.93;101502.88;5029459;27;47388;-75
2023/03/15 06:52:08;;;;;;;;;4.33;4.00;;;;;27.03;28.70;101503.91;5027145;27;45945;-74
2023/03/15 06:54:33;;;;;;;;;7.67;4.00;;;;;27.08;28.96;101498.78;5023898;27;45555;-74
2023/03/15 06:56:59;;;;;;;;;6.33;6.00;;;;;27.13;28.79;101505.56;5027384;27;45446;-73
2023/03/15 06:59:24;;;;;;;;;4.33;3.00;;;;;27.19;29.19;101507.59;5026830;27;45647;-74
2023/03/15 07:01:50;;;;;;;;;5.33;4.67;;;;;27.23;29.03;101503.50;5029244;27;46186;-74
2023/03/15 07:04:15;;;;;;;;;4.33;4.33;;;;;27.28;28.74;101506.53;5031082;27;45509;-74
2023/03/15 07:06:41;;;;;;;;;4.67;3.00;;;;;27.26;29.00;101496.84;5022767;27;45467;-73
2023/03/15 07:09:06;;;;;;;;;5.33;2.67;;;;;27.32;29.51;101505.16;5010647;27;45733;-74
2023/03/15 07:11:32;;;;;;;;;4.00;3.33;;;;;27.32;29.42;101497.00;5028661;27;46379;-74
2023/03/15 07:13:57;;;;;;;;;3.00;1.67;;;;;27.39;28.92;101508.03;5053749;27;45456;-73
2023/03/15 07:16:23;;;;;;;;;3.33;3.33;;;;;27.42;29.34;101509.56;5025519;27;45602;-73
2023/03/15 07:18:49;;;;;;;;;3.67;3.33;;;;;27.44;29.36;101513.81;5005434;27;45642;-72
2023/03/15 07:21:14;;;;;;;;;5.33;3.33;;;;;27.48;28.71;101517.88;5024126;27;46548;-73
2023/03/15 07:23:40;;;;;;;;;3.00;3.00;;;;;27.52;28.73;101520.25;5010908;27;45850;-73
2023/03/15 07:26:05;;;;;;;;;3.00;3.00;;;;;27.54;29.33;101523.66;5027244;27;45403;-73
2023/03/15 07:28:30;;;;;;;;;5.00;3.33;;;;;27.49;29.46;101513.28;5032588;27;46435;-73
2023/03/15 07:30:59;;;;;;;;;5.00;4.00;;;;;27.59;29.13;101532.16;5030706;27;46326;-73
2023/03/15 07:33:25;;;;;;;;;2.33;2.33;;;;;27.61;28.53;101530.97;5008748;27;45479;-74
2023/03/15 07:35:54;;;;;;;;;4.00;4.00;;;;;27.64;29.29;101531.63;5021866;27;45366;-74
2023/03/15 07:38:22;;;;;;;;;3.00;3.00;;;;;27.64;28.45;101531.63;5024630;27;45563;-73
2023/03/15 07:40:47;;;;;;;;;2.67;2.67;;;;;27.64;28.55;101537.97;5029493;27;45596;-73
2023/03/15 07:43:13;;;;;;;;;4.00;2.67;;;;;27.69;28.70;101541.00;5027793;27;45418;-74
2023/03/15 07:45:38;;;;;;;;;2.67;2.67;;;;;27.71;28.79;101541.66;5029767;27;45785;-73
2023/03/15 07:48:05;;;;;;;;;2.00;2.00;;;;;27.66;29.01;101541.34;5025703;27;45437;-73
2023/03/15 07:50:31;;;;;;;;;6.00;3.00;;;;;27.73;28.67;101549.66;5024522;27;45963;-74
2023/03/15 07:52:56;;;;;;;;;4.00;3.67;;;;;27.77;29.13;101550.16;5026497;27;45434;-75
2023/03/15 07:55:21;;;;;;;;;3.33;3.33;;;;;27.82;28.52;101555.91;5016987;27;45442;-77
2023/03/15 07:57:47;;;;;;;;;3.00;3.00;;;;;27.84;29.12;101565.63;5027974;27;45458;-75
2023/03/15 08:00:13;;;;;;;;;3.67;3.00;;;;;27.89;28.55;101559.66;5026920;27;45472;-73
2023/03/15 08:02:39;;;;;;;;;2.00;2.00;;;;;27.92;28.90;101556.56;5016794;27;45394;-73
2023/03/15 08:05:05;;;;;;;;;4.00;3.00;;;;;27.92;29.18;101567.50;5018462;27;45646;-73
2023/03/15 08:07:31;;;;;;;;;4.00;4.00;;;;;27.94;28.24;101562.69;5024371;27;45701;-73
2023/03/15 08:10:00;;;;;;;;;3.67;3.67;;;;;27.91;28.43;101567.66;5027557;27;46119;-74
2023/03/15 08:12:25;;;;;;;;;1.33;1.33;;;;;27.96;29.00;101577.00;5029475;27;45410;-73
2023/03/15 08:14:51;;;;;;;;;2.00;2.00;;;;;27.94;29.05;101570.00;5009553;27;45435;-73
2023/03/15 08:17:17;;;;;;;;;4.00;4.00;;;;;27.99;28.75;101584.81;5049149;27;45553;-74
2023/03/15 08:19:43;;;;;;;;;2.67;2.67;;;;;27.99;28.28;101584.81;5028537;27;45741;-73
2023/03/15 08:22:09;;;;;;;;;3.00;3.00;;;;;27.99;28.79;101583.97;5026624;27;45505;-73
2023/03/15 08:24:34;;;;;;;;;2.67;2.00;;;;;28.00;28.32;101586.53;5016312;27;45378;-77
2023/03/15 08:27:00;;;;;;;;;4.00;3.00;;;;;27.98;28.36;101579.53;5026420;27;45525;-76
2023/03/15 08:29:25;;;;;;;;;4.00;2.00;;;;;27.99;28.94;101595.75;5025468;27;45511;-77
2023/03/15 08:31:51;;;;;;;;;2.00;2.00;;;;;27.96;28.33;101593.34;5016688;27;46429;-77
2023/03/15 08:34:16;;;;;;;;;3.33;3.33;;;;;27.95;28.83;101588.94;5012375;27;45506;-78
2023/03/15 08:36:41;;;;;;;;;3.00;1.33;;;;;27.91;28.85;101592.22;5015417;27;45861;-76
2023/03/15 08:39:07;;;;;;;;;2.33;2.33;;;;;27.87;28.73;101587.09;5036762;27;46558;-78
2023/03/15 08:41:33;;;;;;;;;3.00;3.00;;;;;27.92;28.39;101594.78;5027567;27;45511;-78
2023/03/15 08:43:59;;;;;;;;;4.00;2.67;;;;;27.92;28.32;101594.78;5037007;27;45364;-75
2023/03/15 08:46:25;;;;;;;;;5.67;4.67;;;;;27.94;28.43;101602.75;5030200;27;45808;-76
2023/03/15 08:48:51;;;;;;;;;3.00;3.00;;;;;27.94;28.84;101598.16;5029693;27;47161;-75
2023/03/15 08:51:16;;;;;;;;;5.00;3.00;;;;;27.96;28.28;101593.34;5032055;27;45644;-76
2023/03/15 08:53:41;;;;;;;;;2.00;1.00;;;;;28.03;29.17;101604.41;5032616;27;45749;-75
2023/03/15 08:56:08;;;;;;;;;4.00;3.00;;;;;28.06;28.92;101600.47;5032559;27;45508;-75
2023/03/15 08:58:33;;;;;;;;;3.00;3.00;;;;;28.08;28.78;101602.00;5031533;27;45453;-75
2023/03/15 09:00:58;;;;;;;;;3.33;2.00;;;;;28.14;29.29;101609.47;5030849;27;45392;-76
2023/03/15 09:03:24;;;;;;;;;3.00;3.00;;;;;28.10;28.59;101601.81;5030706;27;45488;-75
2023/03/15 09:05:49;;;;;;;;;2.33;2.00;;;;;28.18;29.06;101609.97;5032282;27;45509;-77
2023/03/15 09:08:17;;;;;;;;;2.33;2.33;;;;;28.23;29.48;101607.56;5032113;27;46728;-77
2023/03/15 09:10:42;;;;;;;;;3.00;2.00;;;;;28.22;29.53;101603.13;5032274;27;45444;-76
2023/03/15 09:13:08;;;;;;;;;2.00;2.00;;;;;28.27;29.60;101598.00;5032221;27;45725;-78
2023/03/15 09:15:33;;;;;;;;;3.00;3.00;;;;;28.30;29.44;101607.72;5031379;27;45519;-78
2023/03/15 09:17:59;;;;;;;;;2.33;2.00;;;;;28.31;29.37;101606.69;5031201;27;46009;-76
2023/03/15 09:20:27;;;;;;;;;3.33;3.33;;;;;28.35;29.59;101605.28;5026629;27;45422;-76
2023/03/15 09:22:54;;;;;;;;;4.00;4.00;;;;;28.41;29.23;101614.66;5013614;27;45452;-76
2023/03/15 09:25:21;;;;;;;;;2.00;2.00;;;;;28.44;29.09;101619.72;5032279;27;45547;-76
2023/03/15 09:27:46;;;;;;;;;2.00;2.00;;;;;28.47;29.78;101613.91;5054071;27;45997;-76
2023/03/15 09:30:13;;;;;;;;;1.33;1.33;;;;;28.49;29.61;101611.84;5020546;27;45695;-77
2023/03/15 09:32:38;;;;;;;;;2.00;2.00;;;;;28.51;29.02;101615.25;5019782;27;45435;-75
2023/03/15 09:35:06;;;;;;;;;2.67;2.33;;;;;28.54;29.23;101614.03;5019549;27;47005;-76
2023/03/15 09:37:32;;;;;;;;;2.00;2.00;;;;;28.58;29.22;101609.06;5010436;27;47630;-76
2023/03/15 09:39:57;;;;;;;;;2.33;2.00;;;;;28.64;29.38;101613.78;5027835;27;45446;-78
2023/03/15 09:43:02;;;;;;;;;3.67;3.00;;;;;28.71;29.74;101619.38;5033681;27;45679;-75
2023/03/15 09:45:54;;;;;;;;;2.00;2.00;;;;;28.75;29.54;101615.25;5050069;28;45389;-80
2023/03/15 09:48:34;;;;;;;;;2.67;2.67;;;;;28.79;29.71;101627.50;5038332;28;45648;-77
2023/03/15 09:51:07;;;;;;;;;3.67;2.00;;;;;28.80;29.46;101621.00;5038592;28;45721;-87
2023/03/15 09:53:57;;;;;;;;;7.33;3.33;;;;;28.82;28.71;101624.41;5038570;28;45558;-78
2023/03/15 09:56:32;;;;;;;;;4.67;3.00;;;;;28.79;29.24;101620.16;5051961;28;45645;-74
2023/03/15 09:59:00;;;;;;;;;3.67;2.33;;;;;28.80;28.97;101618.28;5051985;28;45459;-73
2023/03/15 10:01:36;;;;;;;;;2.00;2.00;;;;;28.78;29.14;101604.78;5051486;28;45503;-73
2023/03/15 10:04:13;;;;;;;;;4.00;2.00;;;;;28.83;29.11;101609.72;5048125;28;45490;-73
2023/03/15 10:06:45;;;;;;;;;2.00;2.00;;;;;28.86;29.44;101605.78;5049550;28;45572;-74
2023/03/15 10:09:19;;;;;;;;;3.67;2.00;;;;;28.97;29.50;101612.72;5051743;28;46226;-73
2023/03/15 10:11:55;;;;;;;;;4.00;2.00;;;;;29.02;29.44;101611.09;5050503;28;45463;-73
2023/03/15 10:14:27;;;;;;;;;2.00;2.00;;;;;29.06;29.63;101609.69;5040164;28;45471;-78
2023/03/15 10:16:52;;;;;;;;;2.67;2.67;;;;;29.10;29.41;101620.28;5048905;28;45548;-74
2023/03/15 10:19:36;;;;;;;;;2.00;1.00;;;;;29.14;29.04;101616.97;5058470;28;45769;-74
2023/03/15 10:22:13;;;;;;;;;3.00;3.00;;;;;29.18;29.40;101609.28;5039784;27;45493;-75
2023/03/15 10:24:45;;;;;;;;;4.00;2.00;;;;;29.19;29.28;101606.31;5031120;27;45454;-75
2023/03/15 10:27:19;;;;;;;;;2.33;1.67;;;;;29.20;29.48;101601.72;5029813;27;45597;-75
2023/03/15 10:29:47;;;;;;;;;3.67;1.00;;;;;29.23;29.10;101598.63;5031292;27;47304;-77
2023/03/15 10:32:19;;;;;;;;;1.00;1.00;;;;;29.28;29.48;101608.97;5030520;27;45600;-77
2023/03/15 10:34:51;;;;;;;;;1.00;1.00;;;;;29.32;29.58;101613.03;5031421;27;45511;-79
2023/03/15 10:37:18;;;;;;;;;2.00;2.00;;;;;29.35;28.84;101611.81;5030817;27;45722;-77
2023/03/15 10:39:48;;;;;;;;;2.00;2.00;;;;;29.30;29.21;101609.66;5030623;27;45672;-75
2023/03/15 10:42:33;;;;;;;;;1.00;1.00;;;;;29.31;29.18;101609.44;5031099;27;45479;-74
2023/03/15 10:45:19;;;;;;;;;3.33;2.33;;;;;29.31;28.95;101614.09;5002849;27;45452;-75
2023/03/15 10:47:46;;;;;;;;;1.67;1.67;;;;;29.29;29.32;101602.47;5017987;27;45776;-74
2023/03/15 10:50:25;;;;;;;;;1.33;1.33;;;;;29.26;28.83;101597.41;5024667;27;46284;-74
2023/03/15 10:52:54;;;;;;;;;1.00;1.00;;;;;29.22;29.13;101596.91;5013116;27;45351;-72
2023/03/15 10:55:31;;;;;;;;;3.00;3.00;;;;;29.18;28.51;101601.06;5030990;27;45461;-72
2023/03/15 10:58:01;;;;;;;;;2.00;2.00;;;;;29.16;28.81;101594.94;5030068;27;45386;-72
2023/03/15 11:00:37;;;;;;;;;3.00;2.00;;;;;29.12;28.58;101593.59;5021916;27;45548;-74
2023/03/15 11:03:16;;;;;;;;;2.00;2.00;;;;;29.17;28.92;101588.41;5029613;27;45451;-74
2023/03/15 11:05:44;;;;;;;;;2.33;2.33;;;;;29.22;28.75;101594.16;5031376;27;45450;-76
2023/03/15 11:08:16;;;;;;;;;2.33;2.33;;;;;29.23;29.41;101587.69;5030532;27;45588;-73
2023/03/15 11:10:43;;;;;;;;;1.00;1.00;;;;;29.32;28.85;101597.50;5030255;27;46273;-73
2023/03/15 11:13:22;;;;;;;;;4.33;2.00;;;;;29.37;28.57;101599.66;5029999;27;45407;-76
2023/03/15 11:15:54;;;;;;;;;2.33;2.00;;;;;29.41;29.18;101601.00;5019169;27;45368;-74
2023/03/15 11:18:26;;;;;;;;;1.00;1.00;;;;;29.45;28.53;101607.78;5016886;27;45327;-74
2023/03/15 11:20:55;;;;;;;;;1.67;1.67;;;;;29.46;28.88;101603.13;5030755;27;46556;-79
2023/03/15 11:23:28;;;;;;;;;2.00;2.00;;;;;29.46;28.87;101595.81;5012992;27;45407;-79
2023/03/15 11:25:54;;;;;;;;;1.67;1.00;;;;;29.44;28.61;101594.28;5030788;27;45378;-78
2023/03/15 11:28:26;;;;;;;;;1.00;1.00;;;;;29.45;28.75;101590.50;5030738;27;45413;-76